createdAt,value
2023-05-17T00:00:48.807Z,2.15
2023-05-17T00:03:15.377Z,1.77
2023-05-17T00:05:42.224Z,1.88
2023-05-17T00:08:08.730Z,1.70
2023-05-17T00:10:35.469Z,2.13
2023-05-17T00:13:01.965Z,2.30
2023-05-17T00:15:28.748Z,2.28
2023-05-17T00:17:56.075Z,2.20
2023-05-17T00:20:22.760Z,2.10
2023-05-17T00:22:49.612Z,2.75
2023-05-17T00:25:16.143Z,2.85
2023-05-17T00:27:42.666Z,2.75
2023-05-17T00:30:09.388Z,3.03
2023-05-17T00:32:35.925Z,3.22
2023-05-17T00:35:02.823Z,2.75
2023-05-17T00:37:29.467Z,3.15
2023-05-17T00:39:56.002Z,3.20
2023-05-17T00:42:22.547Z,3.90
2023-05-17T00:44:49.133Z,4.18
2023-05-17T00:47:15.719Z,3.90
2023-05-17T00:49:42.278Z,3.47
2023-05-17T00:52:08.907Z,4.32
2023-05-17T00:54:35.657Z,3.90
2023-05-17T00:57:03.270Z,4.47
2023-05-17T00:59:31.435Z,5.00
2023-05-17T01:01:58.261Z,4.05
2023-05-17T01:04:24.845Z,5.38
2023-05-17T01:06:51.888Z,5.60
2023-05-17T01:09:18.588Z,5.95
2023-05-17T01:12:10.595Z,5.18
2023-05-17T01:15:07.497Z,7.18
2023-05-17T01:17:56.471Z,6.65
2023-05-17T01:20:38.165Z,6.90
2023-05-17T01:23:22.391Z,6.70
2023-05-17T01:26:01.648Z,6.97
2023-05-17T01:28:31.290Z,7.40
2023-05-17T01:31:01.213Z,7.35
2023-05-17T01:33:27.803Z,7.82
2023-05-17T01:35:54.466Z,7.03
2023-05-17T01:38:21.185Z,7.50
2023-05-17T01:41:32.568Z,7.53
2023-05-17T01:44:14.027Z,7.78
2023-05-17T01:46:43.882Z,7.60
2023-05-17T01:49:23.982Z,8.05
2023-05-17T01:51:58.513Z,7.30
2023-05-17T01:54:31.960Z,6.30
2023-05-17T01:56:59.392Z,5.97
2023-05-17T01:59:28.287Z,6.30
2023-05-17T02:02:00.808Z,6.03
2023-05-17T02:04:27.381Z,5.20
2023-05-17T02:06:53.948Z,6.32
2023-05-17T02:09:20.731Z,5.15
2023-05-17T02:11:47.347Z,6.03
2023-05-17T02:14:13.851Z,6.30
2023-05-17T02:16:40.369Z,7.10
2023-05-17T02:19:09.086Z,7.32
2023-05-17T02:21:35.806Z,7.20
2023-05-17T02:24:03.162Z,8.30
2023-05-17T02:26:29.664Z,7.63
2023-05-17T02:28:56.223Z,6.93
2023-05-17T02:31:22.750Z,7.43
2023-05-17T02:33:49.261Z,8.32
2023-05-17T02:36:16.142Z,7.35
2023-05-17T02:38:42.861Z,8.05
2023-05-17T02:41:09.504Z,8.63
2023-05-17T02:43:36.136Z,8.80
2023-05-17T02:46:02.865Z,9.05
2023-05-17T02:48:29.370Z,9.80
2023-05-17T02:50:55.871Z,9.40
2023-05-17T02:53:22.394Z,7.88
2023-05-17T02:55:48.898Z,9.75
2023-05-17T02:58:15.475Z,9.10
2023-05-17T03:00:46.099Z,7.68
2023-05-17T03:03:12.779Z,8.88
2023-05-17T03:05:39.351Z,9.32
2023-05-17T03:08:05.973Z,10.48
2023-05-17T03:10:32.673Z,10.00
2023-05-17T03:12:59.251Z,9.05
2023-05-17T03:15:26.751Z,9.45
2023-05-17T03:17:53.444Z,10.27
2023-05-17T03:20:20.041Z,9.40
2023-05-17T03:22:46.627Z,10.02
2023-05-17T03:25:13.239Z,9.43
2023-05-17T03:27:39.798Z,9.95
2023-05-17T03:30:07.044Z,9.68
2023-05-17T03:32:34.128Z,9.85
2023-05-17T03:35:00.753Z,9.52
2023-05-17T03:37:27.253Z,9.82
2023-05-17T03:39:53.881Z,10.37
2023-05-17T03:42:20.561Z,9.90
2023-05-17T03:44:47.022Z,12.70
2023-05-17T03:47:13.535Z,10.47
2023-05-17T03:49:40.099Z,10.35
2023-05-17T03:52:06.697Z,10.93
2023-05-17T03:54:33.744Z,10.90
2023-05-17T03:57:00.303Z,11.77
2023-05-17T03:59:26.813Z,11.73
2023-05-17T04:01:53.480Z,11.73
2023-05-17T04:04:20.046Z,11.77
2023-05-17T04:06:46.788Z,11.30
2023-05-17T04:09:15.478Z,9.93
2023-05-17T04:11:42.685Z,11.35
2023-05-17T04:14:09.350Z,9.70
2023-05-17T04:16:36.031Z,11.52
2023-05-17T04:19:04.133Z,11.60
2023-05-17T04:21:31.287Z,15.00
2023-05-17T04:23:58.409Z,8.52
2023-05-17T04:26:25.104Z,8.90
2023-05-17T04:28:51.928Z,10.63
2023-05-17T04:31:18.569Z,8.63
2023-05-17T04:33:51.616Z,10.10
2023-05-17T04:36:18.595Z,10.35
2023-05-17T04:38:45.374Z,9.27
2023-05-17T04:41:11.882Z,10.15
2023-05-17T04:43:38.630Z,10.57
2023-05-17T04:46:05.979Z,10.02
2023-05-17T04:48:33.274Z,9.77
2023-05-17T04:51:07.392Z,9.70
2023-05-17T04:53:34.279Z,8.18
2023-05-17T04:56:01.244Z,9.00
2023-05-17T04:58:27.887Z,9.50
2023-05-17T05:00:54.837Z,9.07
2023-05-17T05:03:24.182Z,8.43
2023-05-17T05:05:51.018Z,7.57
2023-05-17T05:08:17.592Z,8.35
2023-05-17T05:10:44.314Z,11.00
2023-05-17T05:13:11.263Z,8.82
2023-05-17T05:15:37.788Z,8.15
2023-05-17T05:18:04.878Z,7.30
2023-05-17T05:20:32.021Z,7.70
2023-05-17T05:22:58.963Z,6.78
2023-05-17T05:25:25.544Z,6.63
2023-05-17T05:27:52.248Z,5.72
2023-05-17T05:30:22.323Z,5.18
2023-05-17T05:32:50.136Z,4.93
2023-05-17T05:35:17.324Z,4.63
2023-05-17T05:37:44.961Z,4.80
2023-05-17T05:40:12.164Z,4.78
2023-05-17T05:42:38.699Z,4.70
2023-05-17T05:45:05.677Z,4.38
2023-05-17T05:47:32.226Z,4.50
2023-05-17T05:49:58.872Z,4.63
2023-05-17T05:52:25.451Z,4.07
2023-05-17T05:54:52.017Z,4.10
2023-05-17T05:57:18.641Z,4.03
2023-05-17T05:59:45.414Z,4.20
2023-05-17T06:02:12.111Z,4.38
2023-05-17T06:04:45.136Z,4.50
2023-05-17T06:07:13.453Z,4.00
2023-05-17T06:09:42.283Z,3.92
2023-05-17T06:12:08.997Z,4.38
2023-05-17T06:14:37.426Z,3.67
2023-05-17T06:17:04.368Z,4.35
2023-05-17T06:19:31.342Z,4.40
2023-05-17T06:21:57.936Z,3.80
2023-05-17T06:24:24.475Z,4.75
2023-05-17T06:26:51.207Z,3.92
2023-05-17T06:29:17.753Z,4.25
2023-05-17T06:31:44.487Z,4.57
2023-05-17T06:34:11.250Z,4.50
2023-05-17T06:36:38.670Z,4.13
2023-05-17T06:39:05.586Z,4.65
2023-05-17T06:41:32.318Z,4.50
2023-05-17T06:43:58.840Z,4.35
2023-05-17T06:46:25.435Z,4.63
2023-05-17T06:48:52.144Z,4.68
2023-05-17T06:51:18.744Z,5.05
2023-05-17T06:53:45.230Z,4.70
2023-05-17T06:56:11.822Z,5.22
2023-05-17T06:58:38.344Z,5.22
2023-05-17T07:01:05.854Z,4.60
2023-05-17T07:03:32.746Z,5.20
2023-05-17T07:05:59.687Z,5.07
2023-05-17T07:08:26.210Z,4.75
2023-05-17T07:10:52.823Z,5.00
2023-05-17T07:13:19.860Z,4.85
2023-05-17T07:15:46.739Z,4.50
2023-05-17T07:18:13.536Z,4.50
2023-05-17T07:20:40.141Z,4.38
2023-05-17T07:23:06.646Z,4.40
2023-05-17T07:25:33.171Z,4.88
2023-05-17T07:27:59.732Z,4.50
2023-05-17T07:30:26.281Z,4.40
2023-05-17T07:32:52.877Z,4.95
2023-05-17T07:35:21.667Z,4.93
2023-05-17T07:37:48.512Z,5.28
2023-05-17T07:40:15.101Z,5.07
2023-05-17T07:42:41.736Z,5.50
2023-05-17T07:45:09.066Z,5.47
2023-05-17T07:47:37.712Z,4.80
2023-05-17T07:50:04.869Z,5.15
2023-05-17T07:52:31.474Z,4.93
2023-05-17T07:55:18.925Z,4.20
2023-05-17T07:57:47.385Z,4.43
2023-05-17T08:00:21.502Z,4.30
2023-05-17T08:02:48.801Z,3.80
2023-05-17T08:05:47.883Z,4.13
2023-05-17T08:08:16.088Z,3.92
2023-05-17T08:10:48.464Z,4.47
2023-05-17T08:13:15.982Z,3.95
2023-05-17T08:15:42.553Z,4.22
2023-05-17T08:18:09.332Z,3.70
2023-05-17T08:20:36.268Z,3.75
2023-05-17T08:23:03.281Z,3.78
2023-05-17T08:25:31.077Z,3.75
2023-05-17T08:27:57.836Z,3.97
2023-05-17T08:32:54.120Z,3.53
2023-05-17T08:35:21.351Z,3.65
2023-05-17T08:37:51.759Z,3.42
2023-05-17T08:40:22.424Z,3.75
2023-05-17T08:42:58.411Z,3.10
2023-05-17T08:45:26.933Z,3.45
2023-05-17T08:47:55.086Z,3.58
2023-05-17T08:50:30.423Z,3.10
2023-05-17T08:52:58.546Z,3.13
2023-05-17T08:55:26.473Z,3.25
2023-05-17T08:57:53.151Z,3.15
2023-05-17T09:00:22.128Z,3.20
2023-05-17T09:02:49.488Z,3.25
2023-05-17T09:05:18.057Z,3.05
2023-05-17T09:07:44.853Z,3.30
2023-05-17T09:10:11.860Z,3.15
2023-05-17T09:12:38.624Z,3.35
2023-05-17T09:15:23.529Z,3.50
2023-05-17T09:17:54.610Z,3.30
2023-05-17T09:20:25.859Z,3.40
2023-05-17T09:22:53.465Z,3.30
2023-05-17T09:25:23.766Z,3.28
2023-05-17T09:30:43.920Z,3.38
2023-05-17T09:33:13.100Z,3.28
2023-05-17T09:35:43.904Z,3.33
2023-05-17T09:38:13.790Z,3.28
2023-05-17T09:40:42.473Z,3.13
2023-05-17T09:43:10.578Z,3.00
2023-05-17T09:45:38.581Z,3.42
2023-05-17T09:48:18.748Z,3.03
2023-05-17T09:50:50.884Z,3.28
2023-05-17T09:53:32.313Z,3.20
2023-05-17T09:56:14.470Z,2.80
2023-05-17T09:58:42.795Z,3.50
2023-05-17T10:01:11.254Z,3.35
2023-05-17T10:03:38.748Z,3.05
2023-05-17T10:06:13.316Z,3.55
2023-05-17T10:08:51.140Z,3.35
2023-05-17T10:11:22.846Z,3.35
2023-05-17T10:14:12.164Z,4.05
2023-05-17T10:16:39.550Z,3.50
2023-05-17T10:19:06.499Z,2.97
2023-05-17T10:21:33.697Z,3.47
2023-05-17T10:24:02.567Z,2.88
2023-05-17T10:26:30.410Z,2.88
2023-05-17T10:29:02.048Z,2.85
2023-05-17T10:31:34.991Z,2.72
2023-05-17T10:34:02.687Z,2.67
2023-05-17T10:36:31.856Z,2.60
2023-05-17T10:38:59.999Z,2.38
2023-05-17T10:41:32.218Z,2.63
2023-05-17T10:44:01.782Z,2.80
2023-05-17T10:46:30.861Z,3.17
2023-05-17T10:48:59.226Z,2.80
2023-05-17T10:51:27.001Z,2.70
2023-05-17T10:54:11.841Z,2.30
2023-05-17T10:56:47.257Z,2.85
2023-05-17T10:59:17.845Z,2.38
2023-05-17T11:01:54.873Z,3.03
2023-05-17T11:04:50.585Z,2.40
2023-05-17T11:10:51.127Z,2.20
2023-05-17T11:13:27.348Z,2.50
2023-05-17T11:16:35.909Z,3.13
2023-05-17T11:19:12.655Z,2.70
2023-05-17T11:25:32.727Z,2.92
2023-05-17T11:28:19.111Z,8.20
2023-05-17T11:37:02.298Z,2.88
2023-05-17T11:39:41.024Z,3.00
2023-05-17T11:42:49.497Z,2.33
2023-05-17T11:45:49.455Z,2.70
2023-05-17T11:51:21.357Z,2.80
2023-05-17T12:09:54.818Z,2.60
2023-05-17T12:12:48.796Z,4.75
2023-05-17T12:19:03.816Z,2.50
2023-05-17T12:21:30.782Z,3.00
2023-05-17T12:23:58.083Z,3.25
2023-05-17T12:26:24.759Z,2.47
2023-05-17T12:28:59.782Z,2.53
2023-05-17T12:31:41.761Z,2.25
2023-05-17T12:34:09.729Z,2.40
2023-05-17T12:36:39.702Z,2.75
2023-05-17T12:39:10.565Z,2.88
2023-05-17T12:41:38.745Z,3.00
2023-05-17T12:44:15.328Z,2.63
2023-05-17T12:46:42.965Z,2.58
2023-05-17T12:49:11.965Z,2.90
2023-05-17T12:51:46.014Z,2.65
2023-05-17T12:54:26.809Z,2.38
2023-05-17T12:56:53.652Z,2.70
2023-05-17T12:59:28.789Z,2.55
2023-05-17T13:01:56.782Z,2.88
2023-05-17T13:04:32.067Z,3.72
2023-05-17T13:07:06.425Z,3.20
2023-05-17T13:09:34.464Z,2.83
2023-05-17T13:12:05.444Z,3.28
2023-05-17T13:14:46.935Z,2.30
2023-05-17T13:17:35.180Z,2.80
2023-05-17T13:20:02.259Z,3.00
2023-05-17T13:22:28.998Z,3.10
2023-05-17T13:24:55.873Z,2.80
2023-05-17T13:27:22.738Z,2.80
2023-05-17T13:29:49.463Z,3.15
2023-05-17T13:32:16.355Z,3.20
2023-05-17T13:34:43.187Z,3.10
2023-05-17T13:37:12.332Z,3.25
2023-05-17T13:39:40.573Z,3.08
2023-05-17T13:42:07.270Z,3.38
2023-05-17T13:44:33.867Z,3.13
2023-05-17T13:47:00.433Z,2.83
2023-05-17T13:49:28.707Z,3.20
2023-05-17T13:51:55.543Z,3.20
2023-05-17T13:54:25.088Z,2.72
2023-05-17T13:56:51.849Z,3.25
2023-05-17T13:59:18.853Z,3.15
2023-05-17T14:01:45.852Z,2.67
2023-05-17T14:04:12.604Z,2.88
2023-05-17T14:06:39.487Z,3.20
2023-05-17T14:09:06.451Z,2.95
2023-05-17T14:11:33.682Z,2.78
2023-05-17T14:14:01.405Z,2.97
2023-05-17T14:16:28.045Z,2.72
2023-05-17T14:18:55.201Z,2.60
2023-05-17T14:21:22.022Z,2.83
2023-05-17T14:23:48.573Z,2.60
2023-05-17T14:26:17.496Z,2.33
2023-05-17T14:28:44.000Z,2.30
2023-05-17T14:31:10.991Z,3.00
2023-05-17T14:33:38.053Z,2.88
2023-05-17T14:36:05.054Z,2.38
2023-05-17T14:38:31.943Z,2.47
2023-05-17T14:41:00.775Z,2.25
2023-05-17T14:43:27.588Z,2.60
2023-05-17T14:45:54.155Z,2.40
2023-05-17T14:48:21.217Z,2.60
2023-05-17T14:50:48.020Z,2.55
2023-05-17T14:53:16.766Z,2.80
2023-05-17T14:55:43.508Z,2.78
2023-05-17T14:58:13.051Z,2.42
2023-05-17T15:00:41.912Z,2.53
2023-05-17T15:03:09.321Z,2.30
2023-05-17T15:05:36.262Z,2.47
2023-05-17T15:08:03.050Z,2.78
2023-05-17T15:10:29.925Z,2.22
2023-05-17T15:12:56.451Z,2.33
2023-05-17T15:15:23.117Z,2.60
2023-05-17T15:17:49.632Z,2.40
2023-05-17T15:20:16.272Z,2.40
2023-05-17T15:22:43.626Z,2.25
2023-05-17T15:25:10.330Z,2.72
2023-05-17T15:27:37.132Z,2.00
2023-05-17T15:30:04.092Z,2.50
2023-05-17T15:32:33.541Z,2.08
2023-05-17T15:35:00.175Z,2.40
2023-05-17T15:37:26.714Z,2.50
2023-05-17T15:39:53.282Z,2.53
2023-05-17T15:42:19.765Z,2.30
2023-05-17T15:44:47.606Z,2.33
2023-05-17T15:47:14.386Z,2.00
2023-05-17T15:49:41.342Z,2.15
2023-05-17T15:52:08.132Z,2.30
2023-05-17T15:54:36.948Z,2.10
2023-05-17T15:57:03.888Z,2.42
2023-05-17T15:59:30.656Z,2.42
2023-05-17T16:01:57.096Z,2.20
2023-05-17T16:04:23.828Z,2.30
2023-05-17T16:06:50.882Z,2.15
2023-05-17T16:09:17.696Z,2.22
2023-05-17T16:11:44.845Z,2.30
2023-05-17T16:14:11.857Z,2.65
2023-05-17T16:16:38.452Z,2.30
2023-05-17T16:19:06.328Z,2.10
2023-05-17T16:21:33.685Z,2.20
2023-05-17T16:24:00.222Z,2.20
2023-05-17T16:26:27.946Z,2.30
2023-05-17T16:28:56.815Z,2.20
2023-05-17T16:31:26.296Z,2.53
2023-05-17T16:33:53.154Z,2.30
2023-05-17T16:36:22.466Z,2.00
2023-05-17T16:38:49.875Z,2.42
2023-05-17T16:41:16.692Z,2.22
2023-05-17T16:43:43.256Z,2.03
2023-05-17T16:46:09.826Z,2.15
2023-05-17T16:48:39.410Z,2.25
2023-05-17T16:51:06.152Z,2.53
2023-05-17T16:53:32.675Z,2.10
2023-05-17T16:55:59.212Z,2.45
2023-05-17T16:58:26.169Z,2.47
2023-05-17T17:00:53.032Z,2.58
2023-05-17T17:03:19.974Z,2.08
2023-05-17T17:05:47.040Z,2.13
2023-05-17T17:08:13.638Z,2.30
2023-05-17T17:10:40.118Z,2.55
2023-05-17T17:13:06.889Z,2.20
2023-05-17T17:16:08.578Z,2.40
2023-05-17T17:18:35.168Z,2.22
2023-05-17T17:21:04.795Z,2.80
2023-05-17T17:23:32.930Z,2.47
2023-05-17T17:26:01.765Z,2.50
2023-05-17T17:28:28.652Z,2.40
2023-05-17T17:30:55.119Z,2.17
2023-05-17T17:33:21.656Z,2.15
2023-05-17T17:35:48.268Z,2.45
2023-05-17T17:38:14.804Z,2.28
2023-05-17T17:40:41.442Z,2.63
2023-05-17T17:43:07.898Z,2.13
2023-05-17T17:45:34.416Z,2.20
2023-05-17T17:48:01.157Z,2.75
2023-05-17T17:50:27.995Z,2.20
2023-05-17T17:52:54.768Z,2.65
2023-05-17T17:55:21.735Z,2.97
2023-05-17T17:57:50.953Z,2.63
2023-05-17T18:00:18.019Z,2.45
2023-05-17T18:02:44.597Z,2.25
2023-05-17T18:05:11.573Z,2.38
2023-05-17T18:07:38.337Z,2.30
2023-05-17T18:10:05.209Z,2.00
2023-05-17T18:12:31.703Z,2.20
2023-05-17T18:14:58.547Z,2.58
2023-05-17T18:17:25.450Z,2.17
2023-05-17T18:19:52.576Z,2.90
2023-05-17T18:22:19.197Z,2.35
2023-05-17T18:24:47.231Z,2.25
2023-05-17T18:27:14.288Z,2.70
2023-05-17T18:29:41.615Z,2.60
2023-05-17T18:32:09.469Z,2.30
2023-05-17T18:34:36.431Z,2.25
2023-05-17T18:37:03.312Z,2.60
2023-05-17T18:39:30.176Z,2.28
2023-05-17T18:41:56.896Z,2.30
2023-05-17T18:44:23.402Z,2.13
2023-05-17T18:46:50.071Z,2.42
2023-05-17T18:49:18.456Z,2.10
2023-05-17T18:51:45.021Z,2.55
2023-05-17T18:54:17.593Z,2.28
2023-05-17T18:56:44.556Z,2.28
2023-05-17T18:59:11.582Z,2.15
2023-05-17T19:01:38.275Z,2.45
2023-05-17T19:04:04.899Z,2.50
2023-05-17T19:06:31.852Z,2.45
2023-05-17T19:08:59.025Z,2.25
2023-05-17T19:11:28.746Z,2.20
2023-05-17T19:13:55.839Z,2.20
2023-05-17T19:16:22.458Z,2.67
2023-05-17T19:18:49.094Z,2.47
2023-05-17T19:21:17.382Z,2.30
2023-05-17T19:23:43.935Z,2.45
2023-05-17T19:26:10.516Z,2.30
2023-05-17T19:28:37.164Z,2.65
2023-05-17T19:31:04.250Z,2.50
2023-05-17T19:33:34.034Z,2.58
2023-05-17T19:36:01.127Z,2.40
2023-05-17T19:38:28.012Z,2.50
2023-05-17T19:40:54.847Z,2.40
2023-05-17T19:43:21.630Z,2.33
2023-05-17T19:45:48.219Z,2.03
2023-05-17T19:48:14.759Z,2.22
2023-05-17T19:50:41.317Z,2.15
2023-05-17T19:53:08.570Z,2.00
2023-05-17T19:55:36.464Z,2.28
2023-05-17T19:58:03.637Z,2.00
2023-05-17T20:00:32.605Z,2.30
2023-05-17T20:03:04.862Z,2.00
2023-05-17T20:05:32.503Z,2.03
2023-05-17T20:07:59.376Z,2.25
2023-05-17T20:10:26.318Z,2.20
2023-05-17T20:12:53.376Z,2.05
2023-05-17T20:15:20.234Z,2.15
2023-05-17T20:17:47.299Z,2.33
2023-05-17T20:20:13.909Z,2.40
2023-05-17T20:22:42.649Z,2.60
2023-05-17T20:25:10.130Z,2.42
2023-05-17T20:27:36.634Z,2.22
2023-05-17T20:30:03.491Z,2.47
2023-05-17T20:32:30.087Z,2.10
2023-05-17T20:34:56.662Z,2.05
2023-05-17T20:37:23.201Z,2.20
2023-05-17T20:39:49.704Z,2.50
2023-05-17T20:42:18.145Z,2.20
2023-05-17T20:44:45.184Z,2.50
2023-05-17T20:47:12.012Z,3.00
2023-05-17T20:49:38.798Z,2.47
2023-05-17T20:52:05.643Z,2.40
2023-05-17T20:54:32.234Z,2.50
2023-05-17T20:56:59.329Z,2.20
2023-05-17T20:59:26.807Z,2.13
2023-05-17T21:01:53.761Z,1.98
2023-05-17T21:04:21.218Z,2.05
2023-05-17T21:06:47.981Z,2.05
2023-05-17T21:09:14.676Z,2.30
2023-05-17T21:11:42.890Z,2.47
2023-05-17T21:14:14.634Z,2.25
2023-05-17T21:16:41.228Z,2.50
2023-05-17T21:19:08.828Z,2.40
2023-05-17T21:21:37.491Z,2.22
2023-05-17T21:24:04.497Z,2.33
2023-05-17T21:26:31.348Z,2.33
2023-05-17T21:28:58.209Z,2.50
2023-05-17T21:31:25.095Z,2.55
2023-05-17T21:33:51.722Z,2.67
2023-05-17T21:36:20.827Z,2.38
2023-05-17T21:38:47.388Z,3.00
2023-05-17T21:41:15.455Z,2.60
2023-05-17T21:43:42.220Z,2.85
2023-05-17T21:46:08.949Z,2.60
2023-05-17T21:48:35.844Z,2.40
2023-05-17T21:51:02.339Z,2.42
2023-05-17T21:53:28.809Z,2.80
2023-05-17T21:56:02.114Z,2.65
2023-05-17T21:58:30.839Z,2.50
2023-05-17T22:00:58.125Z,2.80
2023-05-17T22:03:24.878Z,2.72
2023-05-17T22:05:52.593Z,2.65
2023-05-17T22:08:19.232Z,3.03
2023-05-17T22:10:46.901Z,3.00
2023-05-17T22:13:15.910Z,2.58
2023-05-17T22:15:43.075Z,3.00
2023-05-17T22:18:12.685Z,2.90
2023-05-17T22:20:39.346Z,3.28
2023-05-17T22:23:05.823Z,2.90
2023-05-17T22:25:33.039Z,3.00
2023-05-17T22:27:59.619Z,3.38
2023-05-17T22:30:26.426Z,3.30
2023-05-17T22:32:54.769Z,3.05
2023-05-17T22:35:21.656Z,3.45
2023-05-17T22:37:50.111Z,3.45
2023-05-17T22:40:16.603Z,3.88
2023-05-17T22:42:44.845Z,3.78
2023-05-17T22:45:14.788Z,3.55
2023-05-17T22:47:46.879Z,3.08
2023-05-17T22:50:15.603Z,3.65
2023-05-17T22:52:42.830Z,3.80
2023-05-17T22:55:10.325Z,3.40
2023-05-17T22:57:37.089Z,3.38
2023-05-17T23:00:09.246Z,3.85
2023-05-17T23:02:36.178Z,3.30
2023-05-17T23:05:04.297Z,3.53
2023-05-17T23:07:36.992Z,3.55
2023-05-17T23:10:08.446Z,3.55
2023-05-17T23:12:36.890Z,3.78
2023-05-17T23:15:05.669Z,3.83
2023-05-17T23:17:32.929Z,3.33
2023-05-17T23:20:09.159Z,3.53
2023-05-17T23:22:39.668Z,3.50
2023-05-17T23:25:06.653Z,3.50
2023-05-17T23:27:35.627Z,3.78
2023-05-17T23:30:02.962Z,3.92
2023-05-17T23:32:32.606Z,3.85
2023-05-17T23:35:04.076Z,3.30
2023-05-17T23:37:31.920Z,3.60
2023-05-17T23:39:59.024Z,3.35
2023-05-17T23:42:32.376Z,3.47
2023-05-17T23:45:00.787Z,3.38
2023-05-17T23:47:33.859Z,3.70
2023-05-17T23:50:00.576Z,3.83
2023-05-17T23:52:32.903Z,3.40
2023-05-17T23:54:59.829Z,3.78
2023-05-17T23:57:26.461Z,3.50
2023-05-17T23:59:53.040Z,3.70
